Time;durP1;ratioP1;P1;durP2;ratioP2;P2;SDS_P1;SDS_P2;PMS_P1;PMS_P2;Temp;Humidity;BMP_temperature;BMP_pressure;BME280_temperature;BME280_humidity;BME280_pressure;Samples;Min_cycle;Max_cycle;Signal;HPM_P1;HPM_P2
2024/03/09 00:02:21;;;;;;;81.03;44.00;;;;;;;3.77;61.68;100267.19;6115961;23;98154;-75
2024/03/09 00:04:46;;;;;;;80.83;44.93;;;;;;;3.81;61.78;100280.16;6117270;23;97227;-75
2024/03/09 00:07:12;;;;;;;80.43;47.40;;;;;;;3.84;61.62;100281.88;6116669;23;97458;-74
2024/03/09 00:09:37;;;;;;;81.70;45.20;;;;;;;3.99;61.47;100276.56;6091516;23;97151;-74
2024/03/09 00:12:04;;;;;;;81.53;47.03;;;;;;;4.02;61.75;100278.28;6115915;23;98332;-75
2024/03/09 00:14:30;;;;;;;73.87;43.70;;;;;;;3.95;61.57;100277.44;6091345;23;97799;-74
2024/03/09 00:16:56;;;;;;;80.27;45.23;;;;;;;4.04;61.72;100276.50;6091177;23;97044;-76
2024/03/09 00:19:22;;;;;;;82.10;46.70;;;;;;;4.07;61.76;100272.16;6115562;23;97487;-74
2024/03/09 00:21:48;;;;;;;80.73;46.83;;;;;;;4.05;61.86;100275.66;6116631;22;97300;-75
2024/03/09 00:24:14;;;;;;;80.73;45.77;;;;;;;4.20;61.11;100269.44;6115766;23;97042;-75
2024/03/09 00:26:40;;;;;;;80.23;45.77;;;;;;;4.09;61.43;100269.53;6116413;23;97121;-75
2024/03/09 00:29:06;;;;;;;80.50;46.07;;;;;;;3.97;62.10;100267.91;6115543;23;97096;-75
2024/03/09 00:31:31;;;;;;;83.73;48.17;;;;;;;3.85;62.25;100265.41;6117794;23;96710;-75
2024/03/09 00:33:57;;;;;;;79.77;44.70;;;;;;;3.84;62.16;100256.75;6066290;23;100308;-75
2024/03/09 00:36:23;;;;;;;84.37;47.37;;;;;;;3.84;62.39;100264.56;6116604;23;96776;-75
2024/03/09 00:38:48;;;;;;;79.80;45.43;;;;;;;3.95;62.00;100261.84;6115561;23;96651;-75
2024/03/09 00:41:14;;;;;;;83.43;47.43;;;;;;;3.74;62.54;100247.28;6090900;23;100107;-74
2024/03/09 00:43:43;;;;;;;84.43;48.07;;;;;;;3.86;62.40;100255.00;6116749;23;97783;-76
2024/03/09 00:46:10;;;;;;;83.50;48.00;;;;;;;3.89;62.39;100250.66;6116296;23;96720;-75
2024/03/09 00:48:35;;;;;;;80.50;46.87;;;;;;;3.82;62.52;100240.31;6115656;23;97153;-74
2024/03/09 00:51:01;;;;;;;87.37;50.60;;;;;;;3.88;62.72;100246.34;6117616;22;97846;-75
2024/03/09 00:53:27;;;;;;;90.17;49.13;;;;;;;3.87;62.16;100237.69;6089561;23;100309;-75
2024/03/09 00:55:52;;;;;;;87.20;48.43;;;;;;;3.89;62.37;100232.47;6116157;23;96789;-74
2024/03/09 00:58:21;;;;;;;88.77;51.07;;;;;;;3.97;62.15;100241.94;6117135;23;97012;-75
2024/03/09 01:00:47;;;;;;;89.17;49.13;;;;;;;3.90;62.36;100231.59;6090725;23;100747;-75
2024/03/09 01:03:13;;;;;;;85.80;49.10;;;;;;;3.97;62.13;100228.94;6114914;23;97425;-75
2024/03/09 01:05:38;;;;;;;91.07;49.90;;;;;;;3.98;61.85;100220.25;6090748;23;96989;-75
2024/03/09 01:08:05;;;;;;;84.90;48.27;;;;;;;3.92;62.20;100222.06;6115654;23;97090;-75
2024/03/09 01:10:30;;;;;;;91.43;50.20;;;;;;;3.89;62.65;100220.34;6090857;23;100447;-75
2024/03/09 01:12:56;;;;;;;85.43;48.40;;;;;;;3.83;62.69;100202.22;6090021;23;100689;-75
2024/03/09 01:15:21;;;;;;;91.33;51.80;;;;;;;3.86;62.75;100208.25;6116245;23;96834;-75
2024/03/09 01:17:47;;;;;;;87.90;49.07;;;;;;;3.98;62.37;100209.00;6115344;23;96732;-75
2024/03/09 01:20:13;;;;;;;91.60;50.63;;;;;;;3.95;62.48;100204.72;6090535;23;100770;-75
2024/03/09 01:22:43;;;;;;;84.30;48.97;;;;;;;4.11;61.91;100202.84;6114388;23;97488;-75
2024/03/09 01:25:08;;;;;;;91.20;50.23;;;;;;;3.99;62.19;100196.03;6116304;23;97181;-75
2024/03/09 01:27:35;;;;;;;95.30;51.93;;;;;;;3.98;62.28;100203.81;6115586;23;96666;-75
2024/03/09 01:30:01;;;;;;;88.07;52.33;;;;;;;4.01;61.87;100199.44;6115309;23;97850;-75
2024/03/09 01:32:27;;;;;;;83.87;49.23;;;;;;;3.91;62.34;100195.22;6114194;23;97596;-75
2024/03/09 01:34:53;;;;;;;90.47;49.47;;;;;;;4.00;62.43;100176.97;6115722;23;97235;-76
2024/03/09 01:37:20;;;;;;;90.33;48.30;;;;;;;4.08;61.95;100192.47;6115824;23;96800;-75
2024/03/09 01:39:49;;;;;;;89.27;50.37;;;;;;;4.05;61.96;100189.91;6115257;23;97667;-75
2024/03/09 01:42:18;;;;;;;90.50;50.23;;;;;;;4.05;62.23;100188.19;6115391;23;97400;-75
2024/03/09 01:44:47;;;;;;;88.23;51.00;;;;;;;4.12;61.65;100180.31;6115484;23;96875;-75
2024/03/09 01:47:14;;;;;;;89.63;50.00;;;;;;;4.21;61.56;100180.22;6091723;23;96684;-75
2024/03/09 01:49:40;;;;;;;91.30;50.63;;;;;;;4.19;61.52;100177.66;6090668;23;100867;-75
2024/03/09 01:52:06;;;;;;;87.43;49.20;;;;;;;4.14;61.73;100187.22;6089973;23;100371;-75
2024/03/09 01:54:34;;;;;;;84.03;48.97;;;;;;;4.11;61.65;100179.47;6114572;23;97157;-75
2024/03/09 01:57:00;;;;;;;87.40;48.37;;;;;;;4.19;61.45;100174.16;6090918;23;96730;-75
2024/03/09 01:59:29;;;;;;;88.33;50.47;;;;;;;4.17;61.41;100174.19;6114904;23;97851;-76
2024/03/09 02:01:56;;;;;;;91.27;50.73;;;;;;;4.06;61.64;100173.44;6115485;23;97302;-74
2024/03/09 02:04:23;;;;;;;87.60;50.47;;;;;;;3.98;62.18;100177.84;6115187;23;96946;-75
2024/03/09 02:06:51;;;;;;;84.73;47.57;;;;;;;3.75;62.64;100175.44;6115875;23;96742;-75
2024/03/09 02:09:18;;;;;;;86.50;51.23;;;;;;;3.72;62.63;100170.28;6115559;22;100517;-75
2024/03/09 02:11:47;;;;;;;93.60;49.73;;;;;;;3.75;62.37;100155.56;6116893;23;97870;-75
2024/03/09 02:14:13;;;;;;;88.23;47.50;;;;;;;3.83;62.18;100153.75;6116431;23;96729;-75
2024/03/09 02:16:41;;;;;;;87.63;49.47;;;;;;;3.87;62.50;100159.78;6116938;23;96767;-75
2024/03/09 02:19:08;;;;;;;86.10;48.73;;;;;;;3.84;62.27;100144.25;6115252;23;97426;-75
2024/03/09 02:21:34;;;;;;;87.93;49.67;;;;;;;3.87;62.34;100149.41;6090954;23;100099;-76
2024/03/09 02:24:13;;;;;;;91.83;49.93;;;;;;;3.82;62.71;100151.16;6116225;23;96675;-74
2024/03/09 02:26:40;;;;;;;87.73;49.67;;;;;;;3.82;62.52;100149.44;6116978;23;96685;-75
2024/03/09 02:29:06;;;;;;;88.40;50.37;;;;;;;3.82;62.07;100126.06;6116337;23;97354;-76
2024/03/09 02:31:31;;;;;;;90.27;47.47;;;;;;;3.94;61.92;100122.47;6091510;23;97217;-75
2024/03/09 02:33:57;;;;;;;89.83;49.70;;;;;;;3.99;61.81;100127.63;6116186;23;96813;-75
2024/03/09 02:36:27;;;;;;;91.23;50.63;;;;;;;4.12;61.79;100142.19;6092685;23;96821;-75
2024/03/09 02:38:54;;;;;;;90.83;49.70;;;;;;;4.06;61.68;100137.06;6117609;23;98659;-75
2024/03/09 02:41:20;;;;;;;83.13;47.37;;;;;;;4.09;61.70;100134.44;6091960;23;100347;-75
2024/03/09 02:43:47;;;;;;;86.30;48.40;;;;;;;4.00;61.78;100130.22;6115067;23;96637;-75
2024/03/09 02:46:15;;;;;;;79.90;47.67;;;;;;;4.00;61.70;100117.22;6067494;23;96981;-75
2024/03/09 02:48:45;;;;;;;81.43;47.60;;;;;;;3.70;62.62;100117.53;6115875;23;100157;-76
2024/03/09 02:51:13;;;;;;;85.97;48.00;;;;;;;3.60;63.22;100120.19;6091624;23;100391;-78
2024/03/09 02:53:39;;;;;;;81.30;45.33;;;;;;;3.64;62.88;100108.06;6117038;23;96940;-75
2024/03/09 02:56:15;;;;;;;82.50;47.23;;;;;;;3.66;62.89;100121.88;6116823;23;97155;-75
2024/03/09 02:58:41;;;;;;;85.13;48.97;;;;;;;3.52;63.43;100118.53;6116229;23;100828;-75
2024/03/09 03:01:07;;;;;;;86.43;48.57;;;;;;;3.52;63.51;100116.81;6117170;23;97142;-75
2024/03/09 03:06:20;;;;;;;83.33;44.47;;;;;;;3.73;62.75;100107.13;6116772;23;96983;-75
2024/03/09 03:08:46;;;;;;;83.93;48.23;;;;;;;3.73;62.92;100107.97;6066253;23;100945;-75
2024/03/09 03:11:16;;;;;;;83.93;48.17;;;;;;;3.58;63.17;100106.38;6118006;22;97968;-75
2024/03/09 03:13:46;;;;;;;84.93;48.83;;;;;;;3.42;63.78;100115.16;6115595;23;96696;-75
2024/03/09 03:16:21;;;;;;;85.50;50.00;;;;;;;3.48;64.00;100115.09;6116649;23;96741;-76
2024/03/09 03:18:48;;;;;;;91.33;51.83;;;;;;;3.30;64.14;100107.47;6094328;22;98032;-75
2024/03/09 03:21:14;;;;;;;91.07;50.70;;;;;;;3.34;64.08;100099.66;6120766;22;97331;-77
2024/03/09 03:23:41;;;;;;;86.97;48.80;;;;;;;3.55;63.84;100103.81;6120522;22;96643;-75
2024/03/09 03:26:08;;;;;;;87.37;48.10;;;;;;;3.55;63.64;100090.84;6097044;22;96970;-75
2024/03/09 03:28:36;;;;;;;84.40;49.17;;;;;;;3.44;63.55;100086.63;6120516;22;100684;-75
2024/03/09 03:31:05;;;;;;;83.93;46.30;;;;;;;3.52;63.66;100102.97;6148456;22;96671;-75
2024/03/09 03:33:32;;;;;;;82.80;48.27;;;;;;;3.42;64.09;100085.75;6094703;22;97029;-75
2024/03/09 03:36:01;;;;;;;92.60;51.03;;;;;;;3.34;64.26;100093.59;6147954;22;97037;-75
2024/03/09 03:38:27;;;;;;;89.67;49.03;;;;;;;3.40;64.42;100098.72;6095542;22;100220;-75
2024/03/09 03:40:52;;;;;;;88.23;48.90;;;;;;;3.25;64.69;100093.69;6121664;22;97325;-75
2024/03/09 03:43:18;;;;;;;89.70;47.03;;;;;;;3.30;64.57;100097.97;6120324;22;96917;-75
2024/03/09 03:45:43;;;;;;;77.10;44.87;;;;;;;3.39;64.27;100092.69;6096541;22;97022;-75
2024/03/09 03:48:15;;;;;;;88.07;48.70;;;;;;;3.29;64.45;100096.25;6120817;22;97903;-74
2024/03/09 03:50:42;;;;;;;83.93;46.95;;;;;;;3.12;64.68;100082.56;6123263;22;97753;-75
2024/03/09 03:53:07;;;;;;;86.70;47.37;;;;;;;3.33;64.22;100100.53;6146462;22;97038;-75
2024/03/09 03:55:33;;;;;;;82.67;45.27;;;;;;;3.34;63.93;100098.78;6121016;22;97169;-75
2024/03/09 03:57:58;;;;;;;82.17;45.43;;;;;;;3.26;64.34;100090.19;6120223;22;97434;-75
2024/03/09 04:00:24;;;;;;;85.87;44.40;;;;;;;3.31;64.18;100093.63;6121380;22;99044;-75
2024/03/09 04:02:50;;;;;;;84.97;46.20;;;;;;;3.33;63.94;100090.16;6095396;22;97094;-75
2024/03/09 04:05:16;;;;;;;75.07;44.87;;;;;;;3.39;63.77;100092.69;6121204;22;97077;-75
2024/03/09 04:07:42;;;;;;;78.37;43.57;;;;;;;3.30;63.87;100091.91;6095771;22;99931;-75
2024/03/09 04:10:13;;;;;;;77.70;44.00;;;;;;;3.21;63.78;100074.69;6121383;22;97399;-75
2024/03/09 04:12:40;;;;;;;76.45;43.55;;;;;;;2.99;64.16;100061.00;6096978;22;96767;-76
2024/03/09 04:15:08;;;;;;;83.27;44.83;;;;;;;2.95;64.49;100083.50;6121666;22;97076;-75
2024/03/09 04:17:34;;;;;;;78.60;43.60;;;;;;;2.99;64.48;100070.53;6095596;22;100467;-76
2024/03/09 04:19:59;;;;;;;78.63;44.70;;;;;;;3.05;64.88;100092.09;6147184;22;97744;-75
2024/03/09 04:22:25;;;;;;;83.00;44.67;;;;;;;3.00;64.80;100090.41;6094479;22;97174;-76
2024/03/09 04:24:51;;;;;;;81.33;45.50;;;;;;;2.98;64.90;100085.22;6120572;22;96789;-75
2024/03/09 04:27:18;;;;;;;80.73;44.93;;;;;;;3.10;64.67;100079.09;6096333;22;100172;-75
2024/03/09 04:29:47;;;;;;;84.07;45.60;;;;;;;2.97;64.56;100072.25;6095731;22;100092;-75
2024/03/09 04:32:14;;;;;;;83.20;45.27;;;;;;;2.90;65.05;100071.44;6096453;22;96999;-75
2024/03/09 04:34:40;;;;;;;80.53;47.63;;;;;;;3.06;64.57;100073.06;6120873;22;97160;-75
2024/03/09 04:37:08;;;;;;;75.10;42.53;;;;;;;3.09;64.70;100082.56;6121073;22;97464;-74
2024/03/09 04:39:43;;;;;;;72.63;42.93;;;;;;;3.06;64.79;100080.84;6121686;22;97417;-75
2024/03/09 04:42:09;;;;;;;86.67;46.43;;;;;;;3.05;65.00;100079.13;6122958;22;96672;-75
2024/03/09 04:44:36;;;;;;;78.43;43.43;;;;;;;3.08;64.74;100073.91;6095455;22;96918;-74
2024/03/09 04:47:04;;;;;;;76.50;42.53;;;;;;;2.92;64.71;100061.94;6096042;22;97971;-77
2024/03/09 04:49:29;;;;;;;75.57;42.57;;;;;;;2.91;64.79;100068.00;6120946;22;97404;-75
2024/03/09 04:51:56;;;;;;;87.57;46.83;;;;;;;2.87;65.15;100064.56;6120529;22;96721;-75
2024/03/09 04:54:22;;;;;;;81.00;45.87;;;;;;;2.88;64.86;100062.81;6120673;22;96976;-75
2024/03/09 04:56:49;;;;;;;83.57;44.63;;;;;;;2.84;65.15;100071.50;6121030;22;97563;-75
2024/03/09 04:59:16;;;;;;;80.60;44.33;;;;;;;2.85;65.17;100078.41;6095851;22;97309;-74
2024/03/09 05:01:45;;;;;;;87.57;44.93;;;;;;;2.88;65.30;100078.38;6120889;22;97400;-75
2024/03/09 05:04:13;;;;;;;84.23;44.93;;;;;;;2.80;65.02;100067.22;6147124;22;97144;-75
2024/03/09 05:06:41;;;;;;;79.03;44.10;;;;;;;2.75;65.32;100063.78;6146765;22;97265;-76
2024/03/09 05:09:08;;;;;;;78.27;43.70;;;;;;;2.69;65.61;100069.88;6120457;22;98503;-75
2024/03/09 05:11:34;;;;;;;77.83;43.93;;;;;;;2.83;65.22;100077.56;6146627;22;96605;-75
2024/03/09 05:14:00;;;;;;;77.47;43.73;;;;;;;2.87;65.10;100071.47;6070932;22;96921;-75
2024/03/09 05:16:26;;;;;;;79.63;45.10;;;;;;;2.81;65.12;100066.34;6095602;22;98163;-77
2024/03/09 05:18:52;;;;;;;78.73;45.17;;;;;;;2.81;65.51;100081.88;6094877;22;100098;-76
2024/03/09 05:21:18;;;;;;;78.77;44.67;;;;;;;2.59;66.04;100065.59;6119598;22;96718;-75
2024/03/09 05:23:44;;;;;;;78.23;45.13;;;;;;;2.84;65.31;100072.34;6095117;22;96863;-75
2024/03/09 05:26:11;;;;;;;83.27;45.83;;;;;;;2.88;65.15;100073.19;6120678;22;97502;-75
2024/03/09 05:28:37;;;;;;;81.37;44.33;;;;;;;2.90;65.41;100066.25;6120469;22;97588;-75
2024/03/09 05:31:04;;;;;;;84.10;46.73;;;;;;;2.75;65.89;100066.38;6095643;22;97111;-76
2024/03/09 05:33:30;;;;;;;78.70;44.20;;;;;;;2.82;65.89;100061.16;6143517;22;97313;-75
2024/03/09 05:35:56;;;;;;;81.43;43.90;;;;;;;2.74;65.85;100062.06;6119913;22;97569;-76
2024/03/09 05:38:21;;;;;;;82.50;46.67;;;;;;;2.71;65.98;100044.81;6119853;22;97355;-75
2024/03/09 05:40:47;;;;;;;84.00;45.93;;;;;;;2.65;66.60;100058.66;6095962;22;97254;-74
2024/03/09 05:43:13;;;;;;;88.17;48.03;;;;;;;2.69;66.48;100068.13;6094848;22;96804;-76
2024/03/09 05:45:39;;;;;;;91.00;46.90;;;;;;;2.70;66.40;100063.78;6095716;22;100365;-75
2024/03/09 05:48:07;;;;;;;82.23;46.40;;;;;;;2.59;67.12;100063.00;6095221;22;98749;-75
2024/03/09 05:50:34;;;;;;;84.53;46.33;;;;;;;2.50;67.44;100063.91;6121385;22;96930;-75
2024/03/09 05:53:01;;;;;;;85.77;48.27;;;;;;;2.39;67.91;100058.81;6118830;22;96963;-74
2024/03/09 05:55:26;;;;;;;82.97;46.80;;;;;;;2.56;67.82;100069.09;6095390;22;97941;-77
2024/03/09 05:57:54;;;;;;;87.57;49.13;;;;;;;2.55;67.90;100072.53;6095666;22;98345;-75
2024/03/09 06:00:24;;;;;;;82.33;46.43;;;;;;;2.53;67.59;100060.44;6095016;22;96757;-75
2024/03/09 06:02:51;;;;;;;84.33;46.90;;;;;;;2.65;67.68;100068.16;6095674;22;96711;-75
2024/03/09 06:05:16;;;;;;;88.27;48.60;;;;;;;2.64;67.68;100058.66;6120508;22;97864;-75
2024/03/09 06:07:46;;;;;;;87.60;47.43;;;;;;;2.85;67.35;100070.63;6094648;22;97342;-75
2024/03/09 06:10:16;;;;;;;90.13;46.33;;;;;;;3.04;66.96;100064.44;6120482;22;96698;-75
2024/03/09 06:12:49;;;;;;;85.17;47.83;;;;;;;3.18;66.42;100072.13;6093734;22;97107;-76
2024/03/09 06:15:20;;;;;;;90.83;48.43;;;;;;;3.37;66.13;100059.84;6120037;22;98016;-75
2024/03/09 06:17:47;;;;;;;88.87;49.80;;;;;;;3.62;65.37;100056.16;6119780;22;97451;-75
2024/03/09 06:20:13;;;;;;;89.80;49.50;;;;;;;3.58;65.20;100051.03;6119022;22;96763;-75
2024/03/09 06:22:43;;;;;;;92.10;48.90;;;;;;;3.62;65.14;100053.56;6093204;22;96833;-74
2024/03/09 06:25:19;;;;;;;83.50;47.33;;;;;;;3.63;65.06;100050.06;6094300;22;99709;-74
2024/03/09 06:27:44;;;;;;;87.23;45.83;;;;;;;3.84;64.52;100042.97;6145828;22;97499;-74
2024/03/09 06:30:15;;;;;;;85.20;45.50;;;;;;;3.74;64.89;100049.13;6147064;22;96992;-75
2024/03/09 06:32:41;;;;;;;96.20;51.47;;;;;;;3.86;64.60;100049.84;6095708;22;97115;-75
2024/03/09 06:35:07;;;;;;;88.07;49.13;;;;;;;3.76;64.59;100031.78;6094978;22;99277;-75
2024/03/09 06:37:32;;;;;;;87.17;50.40;;;;;;;3.98;64.49;100056.63;6119607;22;97687;-75
2024/03/09 06:39:58;;;;;;;83.20;46.53;;;;;;;4.41;63.51;100057.84;6120144;22;96814;-75
2024/03/09 06:42:24;;;;;;;88.53;49.73;;;;;;;4.45;63.25;100055.22;6120266;22;97144;-75
2024/03/09 06:44:49;;;;;;;84.87;47.80;;;;;;;4.61;62.85;100050.66;6119141;22;100842;-75
2024/03/09 06:47:16;;;;;;;85.50;46.33;;;;;;;4.73;62.88;100049.63;6119929;22;100044;-75
2024/03/09 06:49:42;;;;;;;86.07;47.87;;;;;;;5.16;61.42;100047.22;6094441;22;96815;-75
2024/03/09 06:52:07;;;;;;;82.87;47.87;;;;;;;5.32;61.36;100039.13;6094583;22;97583;-76
2024/03/09 06:54:33;;;;;;;80.17;47.00;;;;;;;5.59;60.55;100051.69;6119252;22;97525;-75
2024/03/09 06:56:58;;;;;;;84.45;47.35;;;;;;;5.85;60.01;100048.63;6121278;22;97418;-75
2024/03/09 06:59:24;;;;;;;82.60;47.60;;;;;;;5.92;60.15;100033.72;6120936;22;96757;-76
2024/03/09 07:01:57;;;;;;;85.60;48.97;;;;;;;6.29;59.07;100030.41;6096167;22;97161;-75
2024/03/09 07:04:24;;;;;;;85.18;48.22;;;;;;;6.44;58.63;100035.28;6095312;22;100222;-75
2024/03/09 07:06:50;;;;;;;83.55;46.95;;;;;;;6.86;58.26;100035.19;6096257;22;99033;-75
2024/03/09 07:09:17;;;;;;;85.22;48.72;;;;;;;7.05;57.62;100034.78;6095672;22;97149;-75
2024/03/09 07:11:42;;;;;;;77.38;46.00;;;;;;;7.26;56.65;100035.09;6120834;22;97104;-75
2024/03/09 07:14:08;;;;;;;79.15;47.67;;;;;;;7.16;57.12;100028.41;6094611;22;100684;-79
2024/03/09 07:16:33;;;;;;;86.95;48.67;;;;;;;7.31;56.80;100029.78;6095877;22;100423;-76
2024/03/09 07:18:59;;;;;;;83.53;47.28;;;;;;;7.46;56.29;100029.38;6095127;22;96725;-76
2024/03/09 07:21:25;;;;;;;81.53;47.00;;;;;;;7.43;56.20;100026.00;6120193;22;97084;-75
2024/03/09 07:23:52;;;;;;;80.07;47.10;;;;;;;7.61;56.03;100032.47;6119804;22;99410;-76
2024/03/09 07:26:18;;;;;;;78.15;47.38;;;;;;;8.12;55.32;100026.75;6096133;22;97617;-77
2024/03/09 07:28:43;;;;;;;77.18;45.95;;;;;;;8.48;54.33;100048.38;6120260;22;96704;-76
2024/03/09 07:31:11;;;;;;;83.65;48.67;;;;;;;8.76;53.51;100034.47;6096047;22;96798;-76
2024/03/09 07:33:36;;;;;;;79.90;47.92;;;;;;;9.15;52.88;100042.78;6095277;22;97998;-75
2024/03/09 07:36:02;;;;;;;75.50;45.22;;;;;;;9.21;52.76;100026.88;6146831;22;97728;-75
2024/03/09 07:38:29;;;;;;;75.80;45.40;;;;;;;9.72;51.85;100022.53;6094542;22;97108;-75
2024/03/09 07:40:55;;;;;;;73.40;46.05;;;;;;;10.34;50.59;100027.28;6120716;22;96723;-76
2024/03/09 07:43:20;;;;;;;73.50;44.63;;;;;;;10.59;49.87;100037.72;6094752;22;101107;-76
2024/03/09 07:45:46;;;;;;;68.57;42.50;;;;;;;10.41;50.43;100034.03;6120450;22;97411;-76
2024/03/09 07:48:16;;;;;;;70.57;41.58;;;;;;;11.04;48.70;100021.03;6095342;22;97072;-76
2024/03/09 07:50:48;;;;;;;70.88;43.05;;;;;;;10.91;48.13;100019.84;6120761;22;96723;-76
2024/03/09 07:53:14;;;;;;;78.82;46.00;;;;;;;10.67;49.30;100021.66;6093857;22;100771;-76
2024/03/09 07:55:39;;;;;;;73.05;44.05;;;;;;;10.47;49.46;100009.31;6120338;22;97717;-74
2024/03/09 07:58:05;;;;;;;77.82;46.15;;;;;;;10.90;48.62;100014.63;6095013;22;96754;-74
2024/03/09 08:00:33;;;;;;;69.43;45.38;;;;;;;11.06;48.23;100008.72;6095335;22;97017;-73
2024/03/09 08:03:00;;;;;;;69.75;43.75;;;;;;;11.26;47.78;100012.28;6094611;22;97451;-74
2024/03/09 08:05:26;;;;;;;64.68;41.97;;;;;;;10.61;48.94;100008.75;6146894;22;97506;-76
2024/03/09 08:07:52;;;;;;;68.93;44.53;;;;;;;10.80;48.70;99988.75;6092921;22;97467;-74
2024/03/09 08:10:19;;;;;;;68.78;43.17;;;;;;;10.70;48.95;100008.41;6144569;22;97310;-73
2024/03/09 08:12:49;;;;;;;66.80;44.83;;;;;;;10.71;49.17;100004.88;6143863;22;97894;-73
2024/03/09 08:15:15;;;;;;;69.88;43.95;;;;;;;10.57;49.29;100008.03;6117561;22;97708;-75
2024/03/09 08:17:44;;;;;;;68.68;44.25;;;;;;;11.18;48.44;99998.63;6092976;22;97262;-75
2024/03/09 08:20:14;;;;;;;68.72;42.70;;;;;;;11.44;47.65;99998.38;6112730;23;97382;-75
2024/03/09 08:22:45;;;;;;;65.20;42.78;;;;;;;11.76;47.52;99996.13;6111424;23;100556;-74
2024/03/09 08:25:11;;;;;;;64.07;42.00;;;;;;;12.23;46.51;99987.91;6112416;23;97824;-73
2024/03/09 08:27:38;;;;;;;64.20;41.10;;;;;;;12.90;45.87;99975.94;6087865;23;96979;-74
2024/03/09 08:30:13;;;;;;;64.13;40.72;;;;;;;13.99;43.16;99994.13;6112994;23;97158;-75
2024/03/09 08:32:39;;;;;;;62.22;37.03;;;;;;;14.23;43.17;99982.25;6112321;23;101075;-74
2024/03/09 08:35:09;;;;;;;55.35;37.45;;;;;;;13.85;43.53;99988.75;6112820;23;97283;-73
2024/03/09 08:37:38;;;;;;;56.67;37.30;;;;;;;14.13;43.01;99981.03;6112824;23;96711;-74
2024/03/09 08:40:06;;;;;;;54.00;36.25;;;;;;;14.32;42.61;99982.69;6109127;23;97342;-77
2024/03/09 08:42:31;;;;;;;53.90;35.72;;;;;;;14.15;42.66;99983.59;6086403;23;100876;-74
2024/03/09 08:44:58;;;;;;;53.20;35.92;;;;;;;14.30;41.83;99981.91;6087445;23;100624;-73
2024/03/09 08:47:24;;;;;;;56.83;38.15;;;;;;;14.84;41.40;99975.38;6112606;23;96679;-75
2024/03/09 08:49:49;;;;;;;55.10;36.22;;;;;;;14.72;41.59;99981.38;6113210;22;97291;-76
2024/03/09 08:52:15;;;;;;;49.58;35.38;;;;;;;14.16;42.72;99982.66;6106414;23;97881;-74
2024/03/09 08:54:41;;;;;;;44.22;32.20;;;;;;;14.19;42.13;99974.56;6086203;23;99558;-73
2024/03/09 08:57:08;;;;;;;52.28;35.80;;;;;;;14.38;42.18;99956.78;6085281;23;97116;-79
2024/03/09 08:59:37;;;;;;;55.63;36.33;;;;;;;15.02;41.50;99957.59;6113920;23;97151;-74
2024/03/09 09:02:03;;;;;;;52.00;34.22;;;;;;;15.02;41.27;99960.25;6111722;23;98609;-81
2024/03/09 09:04:29;;;;;;;47.25;32.92;;;;;;;15.59;39.91;99951.56;6112819;23;100592;-81
2024/03/09 09:06:54;;;;;;;45.60;30.90;;;;;;;15.33;40.07;99938.16;6112590;23;97070;-81
2024/03/09 09:09:25;;;;;;;49.05;30.83;;;;;;;15.20;40.38;99928.38;6083791;23;97479;-81
2024/03/09 09:11:54;;;;;;;41.33;29.55;;;;;;;16.34;39.03;99940.81;6089315;23;98041;-81
2024/03/09 09:14:20;;;;;;;38.03;27.88;;;;;;;15.95;38.92;99930.00;6115049;22;98115;-81
2024/03/09 09:16:46;;;;;;;41.67;29.52;;;;;;;17.16;37.77;99923.94;6088163;23;97171;-81
2024/03/09 09:19:12;;;;;;;38.40;27.17;;;;;;;16.22;38.46;99923.91;6093282;22;96863;-85
2024/03/09 09:21:38;;;;;;;39.35;27.42;;;;;;;17.18;37.08;99920.22;6113786;22;97451;-87
2024/03/09 09:24:04;;;;;;;34.60;26.45;;;;;;;16.67;37.75;99913.94;6121987;22;97471;-88
2024/03/09 09:26:30;;;;;;;39.70;28.02;;;;;;;16.60;37.49;99920.56;6121436;22;96688;-87
2024/03/09 09:28:56;;;;;;;44.08;28.17;;;;;;;17.48;36.72;99910.28;6122084;22;96722;-86
2024/03/09 09:31:22;;;;;;;39.88;26.20;;;;;;;17.83;35.71;99913.16;6095765;22;100626;-87
2024/03/09 09:33:49;;;;;;;42.28;27.25;;;;;;;17.64;35.98;99919.72;6122053;22;97608;-87
2024/03/09 09:36:16;;;;;;;30.88;23.40;;;;;;;17.11;36.56;99897.75;6095666;22;96708;-86
2024/03/09 09:38:41;;;;;;;35.58;24.05;;;;;;;17.55;36.10;99907.09;6098593;22;96727;-84
2024/03/09 09:41:08;;;;;;;38.60;26.40;;;;;;;17.57;36.04;99905.19;6119719;22;97496;-86
2024/03/09 09:43:34;;;;;;;39.88;24.38;;;;;;;18.13;35.32;99896.00;6121214;22;97405;-84
2024/03/09 09:46:00;;;;;;;28.90;22.17;;;;;;;17.61;35.79;99896.06;6096195;22;96745;-84
2024/03/09 09:48:27;;;;;;;29.55;21.48;;;;;;;17.90;35.10;99876.41;6096394;22;96792;-83
2024/03/09 09:50:53;;;;;;;30.58;19.27;;;;;;;17.40;35.47;99879.81;6095236;22;97507;-83
2024/03/09 09:53:22;;;;;;;29.70;21.05;;;;;;;17.43;35.71;99878.78;6095608;22;100221;-85
2024/03/09 09:55:48;;;;;;;24.55;18.48;;;;;;;17.09;35.64;99870.47;6120078;22;97018;-83
2024/03/09 09:58:14;;;;;;;29.42;20.50;;;;;;;16.79;36.79;99891.94;6148119;22;97091;-85
2024/03/09 10:00:43;;;;;;;28.65;20.05;;;;;;;17.25;36.17;99875.59;6119737;22;98521;-86
2024/03/09 10:03:09;;;;;;;26.88;20.30;;;;;;;17.15;35.84;99887.75;6144305;22;98495;-85
2024/03/09 10:05:35;;;;;;;27.38;20.83;;;;;;;16.88;36.17;99871.94;6116599;22;96982;-87
2024/03/09 10:08:06;;;;;;;26.98;20.00;;;;;;;16.42;36.77;99889.03;6120924;22;97468;-89
2024/03/09 10:10:35;;;;;;;27.40;19.75;;;;;;;15.22;38.22;99874.47;6096595;22;99771;-91
2024/03/09 10:13:11;;;;;;;26.55;20.67;;;;;;;15.23;38.59;99877.97;6121080;22;97535;-90
2024/03/09 10:15:40;;;;;;;24.95;19.40;;;;;;;15.18;39.14;99857.09;6097507;22;96686;-92
2024/03/09 10:18:07;;;;;;;29.38;20.33;;;;;;;14.82;39.87;99868.06;6147716;22;97202;-89
2024/03/09 10:20:35;;;;;;;32.95;21.23;;;;;;;14.37;40.70;99859.16;6072242;22;100264;-89
2024/03/09 10:23:04;;;;;;;36.83;22.73;;;;;;;13.32;43.00;99878.09;6121915;22;97173;-89
2024/03/09 10:25:35;;;;;;;31.08;22.23;;;;;;;13.32;43.65;99838.53;6096794;22;96917;-88
2024/03/09 10:28:05;;;;;;;32.60;22.67;;;;;;;13.61;42.73;99851.94;6096320;22;97171;-90
2024/03/09 10:30:31;;;;;;;32.78;21.50;;;;;;;13.28;43.87;99881.78;6097603;22;97600;-90
2024/03/09 10:32:58;;;;;;;31.75;21.48;;;;;;;12.93;43.68;99862.50;6123638;22;98525;-89
2024/03/09 10:35:24;;;;;;;28.35;20.60;;;;;;;12.75;44.71;99861.66;6098852;22;96669;-89
2024/03/09 10:37:57;;;;;;;29.67;20.52;;;;;;;12.74;44.53;99844.16;6122832;22;97387;-89
2024/03/09 10:40:26;;;;;;;28.48;20.55;;;;;;;12.54;45.23;99846.94;6099151;22;97433;-91
2024/03/09 10:42:53;;;;;;;34.63;20.20;;;;;;;12.68;45.05;99850.59;6122957;22;96714;-90
2024/03/09 10:45:23;;;;;;;25.52;18.15;;;;;;;12.58;45.00;99843.22;6098345;22;96753;-88
2024/03/09 10:47:53;;;;;;;20.92;14.52;;;;;;;12.45;44.42;99859.63;6153373;22;97233;-90
2024/03/09 10:50:24;;;;;;;19.88;12.25;;;;;;;12.29;44.37;99845.50;6090691;22;100872;-87
2024/03/09 10:53:07;;;;;;;16.05;12.23;;;;;;;12.16;44.33;99847.03;6115397;22;97735;-87
2024/03/09 10:55:54;;;;;;;16.33;12.50;;;;;;;12.28;44.80;99851.69;6117564;22;97058;-87
2024/03/09 10:58:25;;;;;;;14.45;11.20;;;;;;;12.45;44.08;99845.63;6140189;22;97233;-86
2024/03/09 11:00:51;;;;;;;15.38;11.45;;;;;;;12.31;43.88;99837.53;6087480;22;98466;-88
2024/03/09 11:03:21;;;;;;;15.60;11.48;;;;;;;12.11;44.17;99843.75;6112116;22;98499;-86
2024/03/09 11:05:48;;;;;;;15.52;10.65;;;;;;;11.89;45.39;99820.25;6114921;22;97321;-85
2024/03/09 11:08:14;;;;;;;14.52;11.30;;;;;;;11.84;45.01;99830.09;6089418;22;97184;-87
2024/03/09 11:10:41;;;;;;;15.02;11.90;;;;;;;11.86;45.60;99817.75;6085033;22;97199;-86
2024/03/09 11:13:08;;;;;;;16.65;11.55;;;;;;;12.05;45.38;99817.75;6088513;22;100571;-84
2024/03/09 11:15:37;;;;;;;17.83;13.18;;;;;;;12.18;45.63;99824.94;6114416;22;97875;-87
2024/03/09 11:18:15;;;;;;;20.42;12.30;;;;;;;12.34;44.67;99822.44;6085060;22;97320;-87
2024/03/09 11:21:07;;;;;;;19.88;11.77;;;;;;;12.15;45.29;99819.84;6107713;22;99138;-86